This is the latest recevied weather packets stored in our database for station/object IQ8VX-3. If no packets are shown the sender has not sent any weather packets the latest 10 day(s).
| Time | Temp. | Humidity | Pressure | Rain* | Wind** | Luminosity | Snow |
|---|---|---|---|---|---|---|---|
| 1777078538 | 11.11° C | 87% | 1684.8 hPa | - | - | - | - |
| 1777077338 | 11.11° C | 87% | 1685.2 hPa | - | - | - | - |
| 1777076137 | 11.67° C | 86% | 1685.4 hPa | - | - | - | - |
| 1777074937 | 11.67° C | 85% | 1685.8 hPa | - | - | - | - |
| 1777073737 | 11.67° C | 85% | 1686.1 hPa | - | - | - | - |
| 1777072536 | 12.22° C | 84% | 1687.1 hPa | - | - | - | - |
| 1777071336 | 12.22° C | 85% | 1688.2 hPa | - | - | - | - |
| 1777070136 | 11.67° C | 83% | 1686.7 hPa | - | - | - | - |
| 1777068936 | 11.67° C | 81% | 1686.7 hPa | - | - | - | - |
| 1777067735 | 12.22° C | 81% | 1687.2 hPa | - | - | - | - |
| 1777066535 | 12.22° C | 80% | 1688.1 hPa | - | - | - | - |
| 1777065335 | 12.22° C | 78% | 1687.6 hPa | - | - | - | - |
| 1777064134 | 12.78° C | 77% | 1688.2 hPa | - | - | - | - |
| 1777062934 | 12.78° C | 75% | 1688.9 hPa | - | - | - | - |
| 1777061734 | 12.78° C | 74% | 1689.4 hPa | - | - | - | - |
| 1777060533 | 13.33° C | 73% | 1690.2 hPa | - | - | - | - |
| 1777059333 | 13.33° C | 71% | 1690.2 hPa | - | - | - | - |
| 1777058133 | 13.89° C | 69% | 1692.4 hPa | - | - | - | - |
| 1777056932 | 14.44° C | 68% | 1693.6 hPa | - | - | - | - |
| 1777055732 | 15.56° C | 66% | 1695.5 hPa | - | - | - | - |
| 1777054532 | 15.56° C | 65% | 1696.1 hPa | - | - | - | - |
| 1777053331 | 16.11° C | 63% | 1697.2 hPa | - | - | - | - |
| 1777052131 | 16.11° C | 60% | 1698 hPa | - | - | - | - |
| 1777050931 | 16.67° C | 57% | 1699.2 hPa | - | - | - | - |
| 1777049731 | 17.22° C | 54% | 1701 hPa | - | - | - | - |
* Rain since midnight (hover to see other rain measurements)
** Current wind speed in m/s (hover to see current wind gust speed)